• Join FlightAware (Why Join?)
  • Login
  • US Flag 
11:59PM EDT


 

Airport Tracker/Info


-or-


 

Live Flight TrackerFlight Track Log ✈ TAM3131 ✈ 22-Aug-2013 ✈ SBVT / VIX - SBSP / CGH

Flight Track Log - Related Links

Times and Time Zones

All times are in EDT time to prevent confusion due to time zone crossing. See the TAM3131 flight status page for this flight to view local times or setup timezone preferences in your user account.

Time Position Orientation Groundspeed Altitude Reporting Facility
EDT Latitude Longitude Course Direction KTS MPH feet Rate Location/Type
10:26AM -21.1327 -41.8687 239° Southwest  Level Estimated
10:27AM -21.1739 -41.9445 240° Southwest  Level Estimated
10:28AM -21.2152 -42.0203 240° Southwest  Level Estimated
10:29AM -21.2564 -42.0962 240° Southwest  Level Estimated
10:30AM -21.2976 -42.1722 240° Southwest  Level Estimated
10:31AM -21.3387 -42.2481 240° Southwest  Level Estimated
10:32AM -21.3798 -42.3242 240° Southwest  Level Estimated
10:33AM -21.4209 -42.4002 240° Southwest  Level Estimated
10:34AM -21.4620 -42.4763 240° Southwest  Level Estimated
10:35AM -21.5030 -42.5525 240° Southwest  Level Estimated
10:36AM -21.5439 -42.6287 240° Southwest  Level Estimated
10:37AM -21.5849 -42.7049 240° Southwest  Level Estimated
10:38AM -21.6258 -42.7812 240° Southwest  Level Estimated
10:39AM -21.6667 -42.8575 240° Southwest  Level Estimated
10:40AM -21.7075 -42.9338 240° Southwest  Level Estimated
10:41AM -21.7483 -43.0103 240° Southwest  Level Estimated
10:42AM -21.7891 -43.0867 240° Southwest  Level Estimated
10:43AM -21.8298 -43.1632 240° Southwest  Level Estimated
10:44AM -21.8705 -43.2397 240° Southwest  Level Estimated
10:45AM -21.9112 -43.3163 240° Southwest  Level Estimated
10:46AM -21.9518 -43.3929 240° Southwest  Level Estimated
10:47AM -21.9924 -43.4696 240° Southwest  Level Estimated
10:48AM -22.0329 -43.5463 240° Southwest  Level Estimated
10:49AM -22.0735 -43.6231 240° Southwest  Level Estimated
10:50AM -22.1139 -43.6999 240° Southwest  Level Estimated
10:51AM -22.1544 -43.7767 240° Southwest  Level Estimated
10:52AM -22.1948 -43.8536 240° Southwest  Level Estimated
10:53AM -22.2352 -43.9305 240° Southwest  Level Estimated
10:54AM -22.2755 -44.0075 240° Southwest  Level Estimated
10:55AM -22.3158 -44.0845 240° Southwest  Level Estimated
10:56AM -22.3561 -44.1616 241° Southwest  Level Estimated
10:57AM -22.3963 -44.2387 241° Southwest  Level Estimated
10:58AM -22.4365 -44.3158 241° Southwest  Level Estimated
10:59AM -22.4767 -44.3931 241° Southwest  Level Estimated
11:00AM -22.5168 -44.4703 241° Southwest  Level Estimated
11:01AM -22.5569 -44.5476 241° Southwest  Level Estimated
11:02AM -22.5969 -44.6249 241° Southwest  Level Estimated
11:03AM -22.6369 -44.7023 241° Southwest  Level Estimated
11:04AM -22.6769 -44.7797 241° Southwest  Level Estimated
11:05AM -22.7168 -44.8572 241° Southwest  Level Estimated
11:06AM -22.7567 -44.9347 241° Southwest  Level Estimated
11:07AM -22.7966 -45.0122 241° Southwest  Level Estimated
11:08AM -22.8364 -45.0899 241° Southwest  Level Estimated
11:09AM -22.8762 -45.1675 241° Southwest  Level Estimated
11:10AM -22.9159 -45.2452 241° Southwest  Level Estimated
11:11AM -22.9556 -45.3229 241° Southwest  Level Estimated
11:12AM -22.9953 -45.4007 241° Southwest  Level Estimated
11:13AM -23.0349 -45.4785 241° Southwest  Level Estimated
11:14AM -23.0745 -45.5564 241° Southwest  Level Estimated
11:15AM -23.1141 -45.6343 241° Southwest  Level Estimated
11:16AM -23.1536 -45.7123 241° Southwest  Level Estimated
11:17AM -23.1931 -45.7903 241° Southwest  Level Estimated
11:18AM -23.2325 -45.8684 241° Southwest  Level Estimated
11:19AM -23.2719 -45.9465 241° Southwest  Level Estimated
11:20AM -23.3113 -46.0247 241° Southwest  Level Estimated
11:21AM -23.3506 -46.1029 241° Southwest  Level Estimated
11:22AM -23.3899 -46.1811 241° Southwest  Level Estimated
11:23AM -23.4291 -46.2594 241° Southwest  Level Estimated
11:24AM -23.4684 -46.3377 241° Southwest  Level Estimated
11:25AM -23.5075 -46.4161 241° Southwest  Level Estimated
11:26AM -23.5467 -46.4946 241° Southwest  Level Estimated
11:27AM -23.5858 -46.5730 241° Southwest  Level Estimated
11:28AM -23.6248 -46.6516 241° Southwest  Level Estimated
11:29AM -23.6267 -46.6554 242° Southwest  Level Estimated
11:30AM -23.6267 -46.6554 114° Southeast  Level Estimated
11:31AM -23.6267 -46.6554 114° Southeast  Level Estimated
11:32AM -23.6267 -46.6554 114° Southeast  Level Estimated
11:33AM -23.6267 -46.6554 114° Southeast  Level Estimated
11:34AM -23.6267 -46.6554 114° Southeast  Level Estimated
11:35AM -23.6267 -46.6554 114° Southeast  Level Estimated
11:36AM -23.6267 -46.6554 114° Southeast  Level Estimated
11:37AM -23.6267 -46.6554 114° Southeast  Level Estimated
11:38AM -23.6267 -46.6554 114° Southeast  Level Estimated
11:39AM -23.6267 -46.6554 114° Southeast  Level Estimated
11:40AM -23.6267 -46.6554 114° Southeast  Level Estimated
11:41AM -23.6267 -46.6554 114° Southeast  Level Estimated
11:42AM -23.6267 -46.6554 114° Southeast  Level Estimated
11:43AM -23.6267 -46.6554 114° Southeast  Level Estimated
11:44AM -23.6267 -46.6554 114° Southeast  Level Estimated